Time;durP1;ratioP1;P1;durP2;ratioP2;P2;SDS_P1;SDS_P2;PMS_P1;PMS_P2;Temp;Humidity;BMP_temperature;BMP_pressure;BME280_temperature;BME280_humidity;BME280_pressure;Samples;Min_cycle;Max_cycle;Signal;HPM_P1;HPM_P2
2022/05/18 00:00:18;;;;;;;7.78;4.70;;;;;;;;;;4940373;28;20051;-67
2022/05/18 00:02:46;;;;;;;11.05;4.85;;;;;;;;;;4938151;28;20203;-67
2022/05/18 00:05:13;;;;;;;9.52;4.50;;;;;;;;;;4942536;28;20052;-67
2022/05/18 00:07:40;;;;;;;11.35;4.90;;;;;;;;;;4940624;28;20039;-67
2022/05/18 00:10:08;;;;;;;8.18;4.75;;;;;;;;;;4944416;29;20067;-67
2022/05/18 00:12:36;;;;;;;8.18;5.15;;;;;;;;;;4926243;29;20098;-67
2022/05/18 00:15:03;;;;;;;10.32;5.10;;;;;;;;;;4925161;29;20124;-67
2022/05/18 00:17:31;;;;;;;10.68;5.20;;;;;;;;;;4947495;28;20584;-67
2022/05/18 00:19:58;;;;;;;8.82;4.95;;;;;;;;;;4943771;28;20047;-67
2022/05/18 00:22:26;;;;;;;10.77;5.00;;;;;;;;;;4940908;28;20051;-67
2022/05/18 00:24:53;;;;;;;11.88;4.88;;;;;;;;;;4929718;29;20098;-67
2022/05/18 00:27:20;;;;;;;8.15;4.57;;;;;;;;;;4928324;29;20063;-67
2022/05/18 00:29:47;;;;;;;8.63;4.80;;;;;;;;;;4920885;28;20055;-67
2022/05/18 00:32:14;;;;;;;8.93;4.75;;;;;;;;;;4943407;28;20047;-67
2022/05/18 00:34:43;;;;;;;7.40;4.50;;;;;;;;;;4941774;28;20437;-67
2022/05/18 00:37:10;;;;;;;10.60;5.00;;;;;;;;;;4945439;28;20398;-67
2022/05/18 00:39:37;;;;;;;9.15;4.90;;;;;;;;;;4945995;28;20047;-67
2022/05/18 00:42:05;;;;;;;13.00;5.32;;;;;;;;;;4941086;28;20054;-67
2022/05/18 00:44:32;;;;;;;9.93;4.85;;;;;;;;;;4942708;28;20107;-67
2022/05/18 00:46:59;;;;;;;7.95;4.80;;;;;;;;;;4924958;29;20059;-67
2022/05/18 00:49:26;;;;;;;10.18;4.55;;;;;;;;;;4944954;28;20054;-67
2022/05/18 00:51:56;;;;;;;14.70;5.10;;;;;;;;;;4931033;29;20063;-67
2022/05/18 00:54:25;;;;;;;10.25;5.32;;;;;;;;;;4949297;28;20051;-67
2022/05/18 00:56:55;;;;;;;10.13;4.70;;;;;;;;;;4944091;28;20447;-67
2022/05/18 00:59:24;;;;;;;8.32;4.65;;;;;;;;;;4944518;28;20051;-67
2022/05/18 01:01:52;;;;;;;6.78;4.72;;;;;;;;;;4939010;28;20669;-67
2022/05/18 01:04:19;;;;;;;10.13;5.13;;;;;;;;;;4943804;28;20058;-66
2022/05/18 01:06:48;;;;;;;7.47;4.82;;;;;;;;;;4944564;28;20423;-66
2022/05/18 01:09:20;;;;;;;10.48;4.88;;;;;;;;;;4922705;28;20155;-66
2022/05/18 01:11:47;;;;;;;9.77;5.37;;;;;;;;;;4939970;28;20055;-66
2022/05/18 01:14:17;;;;;;;8.85;5.13;;;;;;;;;;4939948;28;20449;-66
2022/05/18 01:16:45;;;;;;;12.68;4.95;;;;;;;;;;4944468;29;20055;-66
2022/05/18 01:19:17;;;;;;;8.40;4.72;;;;;;;;;;4946833;28;20052;-66
2022/05/18 01:21:48;;;;;;;11.05;5.40;;;;;;;;;;4940856;28;20506;-66
2022/05/18 01:24:20;;;;;;;12.30;4.88;;;;;;;;;;4945156;28;20055;-66
2022/05/18 01:26:49;;;;;;;11.32;5.03;;;;;;;;;;4925237;28;20099;-66
2022/05/18 01:29:18;;;;;;;7.90;5.13;;;;;;;;;;4926108;29;20063;-66
2022/05/18 01:31:48;;;;;;;12.05;5.80;;;;;;;;;;4941387;28;20070;-66
2022/05/18 01:34:16;;;;;;;9.10;5.25;;;;;;;;;;4944030;28;20047;-66
2022/05/18 01:36:43;;;;;;;11.43;5.68;;;;;;;;;;4946684;28;20044;-66
2022/05/18 01:39:15;;;;;;;8.05;5.28;;;;;;;;;;4943374;29;20550;-66
2022/05/18 01:41:45;;;;;;;10.55;5.78;;;;;;;;;;4943843;28;20074;-66
2022/05/18 01:44:14;;;;;;;10.27;5.78;;;;;;;;;;4945071;28;20059;-66
2022/05/18 01:46:41;;;;;;;9.40;5.80;;;;;;;;;;4925761;28;20534;-66
2022/05/18 01:49:08;;;;;;;9.07;5.55;;;;;;;;;;4937005;28;20056;-66
2022/05/18 01:51:37;;;;;;;9.85;5.68;;;;;;;;;;4919422;29;20059;-66
2022/05/18 01:54:04;;;;;;;12.77;5.82;;;;;;;;;;4938360;28;20047;-66
2022/05/18 01:56:32;;;;;;;9.80;5.63;;;;;;;;;;4919839;29;20391;-66
2022/05/18 01:58:59;;;;;;;11.85;6.00;;;;;;;;;;4922831;28;20526;-66
2022/05/18 02:01:28;;;;;;;11.05;5.60;;;;;;;;;;4920014;29;20142;-66
2022/05/18 02:03:55;;;;;;;10.27;5.72;;;;;;;;;;4944382;28;20051;-66
2022/05/18 02:06:23;;;;;;;13.55;6.72;;;;;;;;;;4941489;29;20118;-66
2022/05/18 02:08:51;;;;;;;9.68;5.53;;;;;;;;;;4940560;28;20055;-66
2022/05/18 02:11:20;;;;;;;10.30;5.72;;;;;;;;;;4927428;29;20051;-66
2022/05/18 02:13:47;;;;;;;13.82;6.32;;;;;;;;;;4939774;28;20066;-66
2022/05/18 02:16:14;;;;;;;9.00;5.75;;;;;;;;;;4938930;28;20047;-66
2022/05/18 02:18:43;;;;;;;9.85;5.90;;;;;;;;;;4922498;29;20070;-66
2022/05/18 02:21:11;;;;;;;13.35;6.15;;;;;;;;;;4926008;29;20059;-66
2022/05/18 02:23:38;;;;;;;11.25;6.38;;;;;;;;;;4947502;28;20051;-66
2022/05/18 02:26:06;;;;;;;11.50;6.53;;;;;;;;;;4938853;28;20828;-66
2022/05/18 02:28:33;;;;;;;9.43;6.13;;;;;;;;;;4943089;29;20106;-66
2022/05/18 02:31:01;;;;;;;9.98;6.68;;;;;;;;;;4925336;28;20078;-66
2022/05/18 02:33:28;;;;;;;12.38;6.72;;;;;;;;;;4926048;29;20044;-66
2022/05/18 02:35:56;;;;;;;9.55;6.38;;;;;;;;;;4925799;28;20055;-66
2022/05/18 02:38:24;;;;;;;12.13;6.70;;;;;;;;;;4943634;28;20054;-66
2022/05/18 02:40:51;;;;;;;12.30;7.18;;;;;;;;;;4939244;29;20110;-66
2022/05/18 02:43:18;;;;;;;9.70;6.47;;;;;;;;;;4924894;29;20114;-66
2022/05/18 02:45:45;;;;;;;9.70;6.40;;;;;;;;;;4926444;29;20546;-66
2022/05/18 02:48:12;;;;;;;11.85;6.82;;;;;;;;;;4938303;28;20039;-66
2022/05/18 02:50:40;;;;;;;10.40;6.70;;;;;;;;;;4943197;29;20125;-66
2022/05/18 02:53:09;;;;;;;10.57;6.90;;;;;;;;;;4937229;28;20544;-66
2022/05/18 02:58:21;;;;;;;11.80;6.72;;;;;;;;;;4938068;28;20110;-66
2022/05/18 03:00:48;;;;;;;12.38;6.60;;;;;;;;;;4940268;28;20054;-66
2022/05/18 03:03:15;;;;;;;12.93;7.00;;;;;;;;;;4941498;28;20051;-66
2022/05/18 03:05:43;;;;;;;12.77;7.80;;;;;;;;;;4922772;29;20087;-66
2022/05/18 03:08:11;;;;;;;15.25;7.40;;;;;;;;;;4941693;28;20110;-66
2022/05/18 03:10:38;;;;;;;11.02;7.50;;;;;;;;;;4930170;29;20066;-66
2022/05/18 03:13:06;;;;;;;12.95;7.75;;;;;;;;;;4941862;28;20119;-66
2022/05/18 03:15:33;;;;;;;15.02;7.68;;;;;;;;;;4940452;28;20051;-66
2022/05/18 03:18:01;;;;;;;12.02;7.82;;;;;;;;;;4945061;28;20530;-66
2022/05/18 03:25:58;;;;;;;10.77;7.25;;;;;;;;;;4935871;28;20063;-66
2022/05/18 03:28:26;;;;;;;15.32;8.05;;;;;;;;;;4939581;28;20059;-66
2022/05/18 03:30:53;;;;;;;10.88;7.65;;;;;;;;;;4920322;28;20046;-66
2022/05/18 03:33:20;;;;;;;15.02;7.78;;;;;;;;;;4943043;28;20165;-66
2022/05/18 03:35:48;;;;;;;12.27;7.97;;;;;;;;;;4942452;28;20506;-66
2022/05/18 03:38:17;;;;;;;12.45;7.50;;;;;;;;;;4941507;29;20051;-66
2022/05/18 03:40:44;;;;;;;12.40;7.93;;;;;;;;;;4938919;28;20058;-66
2022/05/18 03:43:11;;;;;;;11.18;7.40;;;;;;;;;;4938756;28;20051;-66
2022/05/18 03:45:39;;;;;;;11.50;8.05;;;;;;;;;;4944663;28;20055;-66
2022/05/18 03:48:07;;;;;;;10.48;7.20;;;;;;;;;;4943676;28;20490;-66
2022/05/18 03:50:36;;;;;;;12.35;7.90;;;;;;;;;;4940182;28;20053;-66
2022/05/18 03:53:04;;;;;;;11.40;7.68;;;;;;;;;;4937524;28;20073;-66
2022/05/18 03:55:33;;;;;;;13.23;7.65;;;;;;;;;;4928678;28;20054;-66
2022/05/18 03:58:00;;;;;;;15.73;7.97;;;;;;;;;;4942032;28;20051;-66
2022/05/18 04:00:27;;;;;;;12.23;7.32;;;;;;;;;;4941667;28;20115;-66
2022/05/18 04:02:54;;;;;;;15.32;8.05;;;;;;;;;;4937911;28;20043;-66
2022/05/18 04:05:22;;;;;;;12.23;7.72;;;;;;;;;;4935357;28;20111;-66
2022/05/18 04:07:49;;;;;;;13.68;7.30;;;;;;;;;;4921926;28;20055;-66
2022/05/18 04:10:17;;;;;;;13.90;8.00;;;;;;;;;;4938296;28;20192;-66
2022/05/18 04:12:46;;;;;;;11.38;7.53;;;;;;;;;;4941957;28;20047;-66
2022/05/18 04:15:16;;;;;;;12.50;7.57;;;;;;;;;;4924419;29;20063;-66
2022/05/18 04:17:43;;;;;;;16.55;8.38;;;;;;;;;;4946037;28;20047;-66
2022/05/18 04:20:11;;;;;;;14.23;8.18;;;;;;;;;;4930112;29;20094;-66
2022/05/18 04:22:38;;;;;;;11.57;8.07;;;;;;;;;;4946519;28;20109;-66
2022/05/18 04:25:06;;;;;;;13.73;8.00;;;;;;;;;;4945182;28;20118;-66
2022/05/18 04:27:33;;;;;;;10.68;7.18;;;;;;;;;;4948070;28;20106;-66
2022/05/18 04:30:02;;;;;;;11.73;7.88;;;;;;;;;;4945257;28;20051;-66
2022/05/18 04:32:29;;;;;;;14.65;8.07;;;;;;;;;;4946868;28;20051;-66
2022/05/18 04:34:56;;;;;;;14.40;8.38;;;;;;;;;;4928133;29;20514;-66
2022/05/18 04:37:24;;;;;;;13.20;8.50;;;;;;;;;;4946045;28;20039;-66
2022/05/18 04:39:51;;;;;;;11.63;8.35;;;;;;;;;;4930718;29;20059;-66
2022/05/18 04:42:22;;;;;;;12.15;8.35;;;;;;;;;;4945627;28;20059;-66
2022/05/18 04:44:51;;;;;;;11.43;8.63;;;;;;;;;;4948052;28;20070;-66
2022/05/18 04:47:21;;;;;;;17.50;8.95;;;;;;;;;;4943765;28;20170;-66
2022/05/18 04:49:49;;;;;;;14.10;8.98;;;;;;;;;;4954544;28;20095;-66
2022/05/18 04:52:16;;;;;;;16.55;9.48;;;;;;;;;;4951911;29;20050;-66
2022/05/18 04:54:43;;;;;;;15.68;9.32;;;;;;;;;;4950959;28;20051;-66
2022/05/18 04:57:10;;;;;;;16.05;9.18;;;;;;;;;;4947390;28;20044;-66
2022/05/18 04:59:38;;;;;;;13.45;9.68;;;;;;;;;;4936861;29;20051;-66
2022/05/18 05:02:05;;;;;;;15.48;9.77;;;;;;;;;;4950645;29;20067;-66
2022/05/18 05:04:34;;;;;;;19.48;9.98;;;;;;;;;;4948979;28;20122;-66
2022/05/18 05:07:02;;;;;;;15.75;9.45;;;;;;;;;;4951580;28;20059;-66
2022/05/18 05:09:29;;;;;;;14.70;9.80;;;;;;;;;;4950258;28;20474;-66
2022/05/18 05:11:56;;;;;;;16.25;9.68;;;;;;;;;;4950803;28;20145;-66
2022/05/18 05:14:24;;;;;;;15.02;9.98;;;;;;;;;;4932726;28;20128;-66
2022/05/18 05:16:51;;;;;;;17.77;9.57;;;;;;;;;;4931252;29;20458;-66
2022/05/18 05:19:18;;;;;;;16.23;9.68;;;;;;;;;;4951874;28;20043;-66
2022/05/18 05:21:47;;;;;;;14.60;10.32;;;;;;;;;;4950084;29;20067;-66
2022/05/18 05:24:15;;;;;;;15.52;10.82;;;;;;;;;;4950080;28;20110;-66
2022/05/18 05:26:42;;;;;;;14.00;10.50;;;;;;;;;;4949785;28;20055;-66
2022/05/18 05:29:10;;;;;;;20.98;10.48;;;;;;;;;;4954861;28;20076;-66
2022/05/18 05:31:38;;;;;;;18.98;10.82;;;;;;;;;;4952499;28;20051;-66
2022/05/18 05:34:05;;;;;;;18.70;10.43;;;;;;;;;;4930927;28;20503;-66
2022/05/18 05:36:33;;;;;;;15.38;9.60;;;;;;;;;;4934633;28;20119;-66
2022/05/18 05:39:01;;;;;;;16.55;10.32;;;;;;;;;;4929120;29;20055;-66
2022/05/18 05:41:28;;;;;;;15.73;10.23;;;;;;;;;;4953518;28;20636;-66
2022/05/18 05:43:56;;;;;;;18.88;10.00;;;;;;;;;;4949975;28;20067;-66
2022/05/18 05:46:27;;;;;;;15.80;10.20;;;;;;;;;;4947283;28;20095;-66
2022/05/18 05:48:55;;;;;;;15.27;10.45;;;;;;;;;;4953609;28;20047;-66
2022/05/18 05:51:23;;;;;;;14.02;11.00;;;;;;;;;;4952656;28;20062;-66
2022/05/18 05:53:51;;;;;;;18.05;10.93;;;;;;;;;;4955436;28;20061;-66
2022/05/18 05:56:20;;;;;;;15.48;11.18;;;;;;;;;;4948732;28;20134;-66
2022/05/18 05:58:48;;;;;;;15.10;10.70;;;;;;;;;;4935265;28;20070;-66
2022/05/18 06:01:16;;;;;;;15.45;10.85;;;;;;;;;;4932873;29;20227;-66
2022/05/18 06:03:43;;;;;;;15.95;11.15;;;;;;;;;;4949553;28;20047;-66
2022/05/18 06:06:11;;;;;;;20.10;10.93;;;;;;;;;;4933113;29;20111;-66
2022/05/18 06:08:38;;;;;;;16.30;10.25;;;;;;;;;;4951326;28;20055;-66
2022/05/18 06:11:06;;;;;;;15.73;11.25;;;;;;;;;;4935287;29;20114;-66
2022/05/18 06:13:34;;;;;;;17.63;11.63;;;;;;;;;;4947806;28;20063;-66
2022/05/18 06:16:02;;;;;;;18.60;11.32;;;;;;;;;;4949269;28;20051;-66
2022/05/18 06:18:29;;;;;;;17.98;11.93;;;;;;;;;;4948900;28;20055;-66
2022/05/18 06:20:57;;;;;;;18.15;11.18;;;;;;;;;;4950879;28;20058;-66
2022/05/18 06:23:24;;;;;;;16.80;11.73;;;;;;;;;;4948745;28;20446;-66
2022/05/18 06:25:51;;;;;;;18.67;11.40;;;;;;;;;;4949192;28;20047;-66
2022/05/18 06:28:19;;;;;;;19.65;11.05;;;;;;;;;;4949520;28;20498;-66
2022/05/18 06:30:47;;;;;;;15.52;11.48;;;;;;;;;;4949992;28;20058;-66
2022/05/18 06:33:14;;;;;;;17.55;10.80;;;;;;;;;;4947544;28;21605;-66
2022/05/18 06:35:44;;;;;;;20.33;11.93;;;;;;;;;;4944268;28;20070;-66
2022/05/18 06:38:12;;;;;;;19.48;11.52;;;;;;;;;;4946731;28;20046;-66
2022/05/18 06:43:25;;;;;;;20.45;12.77;;;;;;;;;;4947248;28;20546;-66
2022/05/18 06:45:53;;;;;;;22.77;11.65;;;;;;;;;;4948066;28;20573;-66
2022/05/18 06:48:20;;;;;;;19.17;11.98;;;;;;;;;;4948063;28;20051;-66
2022/05/18 06:50:47;;;;;;;19.20;11.88;;;;;;;;;;4948350;28;20051;-66
2022/05/18 06:53:15;;;;;;;20.10;13.00;;;;;;;;;;4945449;28;20051;-66
2022/05/18 06:55:42;;;;;;;19.00;12.43;;;;;;;;;;4945890;28;20047;-66
2022/05/18 06:58:09;;;;;;;20.02;12.20;;;;;;;;;;4930769;29;20055;-66
2022/05/18 07:00:36;;;;;;;24.73;11.68;;;;;;;;;;4947254;28;20047;-66
2022/05/18 07:03:05;;;;;;;20.83;12.20;;;;;;;;;;4942709;28;20043;-66
2022/05/18 07:05:32;;;;;;;20.48;12.40;;;;;;;;;;4938314;28;20055;-66
2022/05/18 07:07:59;;;;;;;16.27;10.95;;;;;;;;;;4939025;28;20057;-66
2022/05/18 07:10:28;;;;;;;14.85;10.70;;;;;;;;;;4921342;29;20114;-66
2022/05/18 07:12:56;;;;;;;17.38;11.63;;;;;;;;;;4939803;28;20355;-66
2022/05/18 07:15:23;;;;;;;14.75;10.90;;;;;;;;;;4939249;29;20069;-66
2022/05/18 07:17:50;;;;;;;19.73;11.57;;;;;;;;;;4949291;28;20058;-66
2022/05/18 07:20:19;;;;;;;17.65;11.68;;;;;;;;;;4932707;29;20106;-66
2022/05/18 07:22:47;;;;;;;16.48;11.02;;;;;;;;;;4946180;28;20059;-66
2022/05/18 07:25:14;;;;;;;17.45;10.48;;;;;;;;;;4948544;28;20047;-66
2022/05/18 07:27:41;;;;;;;15.95;10.73;;;;;;;;;;4949046;28;20047;-66
2022/05/18 07:30:09;;;;;;;18.65;10.30;;;;;;;;;;4952046;28;20051;-66
2022/05/18 07:32:37;;;;;;;18.23;11.13;;;;;;;;;;4949154;28;20073;-66
2022/05/18 07:35:04;;;;;;;15.65;9.90;;;;;;;;;;4947668;28;20062;-66
2022/05/18 07:37:33;;;;;;;24.17;10.98;;;;;;;;;;4947401;28;20181;-66
2022/05/18 07:40:00;;;;;;;19.63;10.57;;;;;;;;;;4948571;28;20188;-66
2022/05/18 07:42:27;;;;;;;17.13;10.68;;;;;;;;;;4950195;29;20059;-66
2022/05/18 07:44:55;;;;;;;19.40;10.63;;;;;;;;;;4948550;28;20106;-66
2022/05/18 07:47:28;;;;;;;16.45;10.80;;;;;;;;;;4930690;28;20066;-66
2022/05/18 07:49:55;;;;;;;19.75;11.68;;;;;;;;;;4948531;28;20051;-66
2022/05/18 07:52:22;;;;;;;18.10;12.10;;;;;;;;;;4947489;28;20055;-66
2022/05/18 07:54:51;;;;;;;18.20;12.73;;;;;;;;;;4949577;28;20062;-66
2022/05/18 07:57:18;;;;;;;20.40;12.35;;;;;;;;;;4932292;29;20055;-66
2022/05/18 07:59:46;;;;;;;22.45;13.15;;;;;;;;;;4950294;28;20106;-66
2022/05/18 08:02:13;;;;;;;20.65;12.50;;;;;;;;;;4951334;28;20054;-66
2022/05/18 08:04:40;;;;;;;19.35;12.70;;;;;;;;;;4951211;28;20395;-66
2022/05/18 08:07:07;;;;;;;20.52;13.40;;;;;;;;;;4948885;28;20067;-66
2022/05/18 08:15:05;;;;;;;20.05;12.95;;;;;;;;;;4949337;28;20059;-66
2022/05/18 08:15:08;;;;;;;27.98;14.13;;;;;;;;;;4943642;28;20074;-66
2022/05/18 08:17:35;;;;;;;20.85;13.02;;;;;;;;;;4953003;28;20499;-66
2022/05/18 08:20:07;;;;;;;22.33;14.05;;;;;;;;;;4948759;29;20059;-66
2022/05/18 08:22:34;;;;;;;19.60;12.75;;;;;;;;;;4945878;28;20507;-66
2022/05/18 08:25:01;;;;;;;18.50;11.85;;;;;;;;;;4933659;29;20114;-66
2022/05/18 08:27:30;;;;;;;24.85;13.25;;;;;;;;;;4954959;28;20054;-66
2022/05/18 08:30:01;;;;;;;18.65;12.55;;;;;;;;;;4958347;28;20102;-66
2022/05/18 08:32:28;;;;;;;22.42;12.32;;;;;;;;;;4956020;28;20138;-66
2022/05/18 08:34:55;;;;;;;23.02;13.15;;;;;;;;;;4935669;28;20065;-66
2022/05/18 08:37:23;;;;;;;22.77;12.95;;;;;;;;;;4937617;29;20058;-66
2022/05/18 08:39:51;;;;;;;21.23;13.77;;;;;;;;;;4949389;28;20175;-66
2022/05/18 08:42:18;;;;;;;26.23;15.18;;;;;;;;;;4952049;28;20138;-66
2022/05/18 08:44:47;;;;;;;20.65;14.85;;;;;;;;;;4935640;29;20055;-66
2022/05/18 08:47:17;;;;;;;25.75;15.73;;;;;;;;;;4948823;28;20134;-66
2022/05/18 08:49:47;;;;;;;30.98;17.77;;;;;;;;;;4923419;29;20055;-66
2022/05/18 08:52:32;;;;;;;31.45;17.92;;;;;;;;;;4928886;29;20114;-66
2022/05/18 08:55:10;;;;;;;23.63;17.00;;;;;;;;;;4931715;28;20089;-66
2022/05/18 08:57:39;;;;;;;26.45;17.25;;;;;;;;;;4952664;28;20046;-66
2022/05/18 09:00:12;;;;;;;23.30;14.57;;;;;;;;;;4952191;28;20055;-66
2022/05/18 09:02:41;;;;;;;29.38;16.75;;;;;;;;;;4932392;29;20063;-66
2022/05/18 09:05:10;;;;;;;22.80;14.50;;;;;;;;;;4956942;28;20505;-66
2022/05/18 09:07:40;;;;;;;20.70;15.43;;;;;;;;;;4937779;28;20150;-66
2022/05/18 09:10:16;;;;;;;24.77;15.95;;;;;;;;;;4952320;28;20061;-66
2022/05/18 09:12:44;;;;;;;25.33;15.63;;;;;;;;;;4948101;28;20061;-66
2022/05/18 09:15:15;;;;;;;28.48;15.45;;;;;;;;;;4946989;28;20051;-66
2022/05/18 09:17:47;;;;;;;25.45;16.35;;;;;;;;;;4948595;28;20051;-66
2022/05/18 09:20:16;;;;;;;28.00;16.92;;;;;;;;;;4952184;28;20055;-66
2022/05/18 09:22:49;;;;;;;26.70;17.65;;;;;;;;;;4943914;28;20062;-66
2022/05/18 09:25:21;;;;;;;24.60;18.27;;;;;;;;;;4953291;28;20110;-66
2022/05/18 09:27:57;;;;;;;30.35;19.23;;;;;;;;;;4949572;28;20796;-66
2022/05/18 09:30:30;;;;;;;27.55;18.17;;;;;;;;;;4951820;28;20126;-66
2022/05/18 09:32:59;;;;;;;;;;;;;;;;;;4945581;28;20114;-66
2022/05/18 09:35:33;;;;;;;33.85;19.40;;;;;;;;;;4948200;28;20040;-66
2022/05/18 09:38:03;;;;;;;28.42;18.88;;;;;;;;;;4947957;28;20054;-66
2022/05/18 09:40:31;;;;;;;33.33;19.95;;;;;;;;;;4948695;29;20055;-66
2022/05/18 09:43:00;;;;;;;34.45;20.10;;;;;;;;;;4946776;28;20059;-66
2022/05/18 09:45:31;;;;;;;32.22;20.27;;;;;;;;;;4948607;28;20498;-66
2022/05/18 09:48:00;;;;;;;33.38;20.13;;;;;;;;;;4947738;28;20054;-66
2022/05/18 09:50:27;;;;;;;29.80;19.08;;;;;;;;;;4948314;28;20098;-66
2022/05/18 09:52:55;;;;;;;37.20;19.77;;;;;;;;;;4951437;28;20078;-66
2022/05/18 09:55:23;;;;;;;27.95;18.85;;;;;;;;;;4953317;28;20043;-66
2022/05/18 09:57:53;;;;;;;27.77;17.27;;;;;;;;;;4928537;29;20066;-66
2022/05/18 10:00:21;;;;;;;31.00;17.90;;;;;;;;;;4947097;28;20051;-66
2022/05/18 10:08:34;;;;;;;30.10;16.95;;;;;;;;;;4927093;29;20042;-66
2022/05/18 10:11:02;;;;;;;24.13;15.95;;;;;;;;;;4951247;28;20395;-66
2022/05/18 10:13:32;;;;;;;22.55;14.45;;;;;;;;;;4946410;28;20059;-66
2022/05/18 10:16:05;;;;;;;23.10;15.18;;;;;;;;;;4947284;28;20099;-66
2022/05/18 10:18:39;;;;;;;27.27;15.18;;;;;;;;;;4946112;28;20051;-66
2022/05/18 10:21:19;;;;;;;32.30;17.40;;;;;;;;;;4958486;28;20065;-66
2022/05/18 10:23:49;;;;;;;27.65;16.42;;;;;;;;;;4931628;28;20200;-66
2022/05/18 10:26:23;;;;;;;26.58;15.30;;;;;;;;;;4953986;28;20047;-66
2022/05/18 10:28:56;;;;;;;28.10;16.75;;;;;;;;;;4932691;29;20192;-66
2022/05/18 10:31:25;;;;;;;24.77;14.75;;;;;;;;;;4934460;29;20114;-66
2022/05/18 10:34:08;;;;;;;25.15;15.45;;;;;;;;;;4933379;28;20059;-66
2022/05/18 10:36:42;;;;;;;25.05;16.58;;;;;;;;;;4933324;29;20063;-66
2022/05/18 10:39:09;;;;;;;24.30;16.35;;;;;;;;;;4949464;28;20066;-66
2022/05/18 10:41:40;;;;;;;22.70;16.15;;;;;;;;;;4948508;28;20051;-66
2022/05/18 10:44:17;;;;;;;31.50;16.38;;;;;;;;;;4950658;28;20051;-66
2022/05/18 10:46:45;;;;;;;25.15;15.68;;;;;;;;;;4950143;28;20569;-66
2022/05/18 10:49:24;;;;;;;22.02;15.55;;;;;;;;;;4950027;28;20453;-66
2022/05/18 10:51:51;;;;;;;29.70;16.55;;;;;;;;;;4928657;29;20051;-66
2022/05/18 10:54:20;;;;;;;26.77;16.35;;;;;;;;;;4946514;28;20051;-66
2022/05/18 10:56:47;;;;;;;26.08;16.38;;;;;;;;;;4945133;28;20051;-66
2022/05/18 10:59:20;;;;;;;27.35;16.33;;;;;;;;;;4946433;28;20383;-66
2022/05/18 11:01:47;;;;;;;;;;;;;;;;;;4946358;28;20051;-66
2022/05/18 11:04:18;;;;;;;24.08;16.70;;;;;;;;;;4927342;29;21129;-66
2022/05/18 11:06:45;;;;;;;26.13;15.93;;;;;;;;;;4943538;29;20059;-66
2022/05/18 11:09:18;;;;;;;25.02;16.45;;;;;;;;;;4928834;29;20051;-67
2022/05/18 11:11:50;;;;;;;29.65;15.85;;;;;;;;;;4945162;28;20149;-67
2022/05/18 11:14:23;;;;;;;30.13;16.45;;;;;;;;;;4923244;29;20059;-67
2022/05/18 11:16:54;;;;;;;24.73;15.27;;;;;;;;;;4925013;29;21872;-67
2022/05/18 11:19:31;;;;;;;30.50;16.17;;;;;;;;;;4921461;29;20048;-67
2022/05/18 11:22:05;;;;;;;29.73;14.98;;;;;;;;;;4925402;29;20039;-67
2022/05/18 11:24:39;;;;;;;26.27;15.27;;;;;;;;;;4925513;29;20150;-67
2022/05/18 11:27:12;;;;;;;28.65;15.57;;;;;;;;;;4928022;29;20106;-67
2022/05/18 11:29:47;;;;;;;27.33;14.98;;;;;;;;;;4927934;29;20058;-67
2022/05/18 11:32:28;;;;;;;25.80;14.48;;;;;;;;;;4928754;29;20087;-67
2022/05/18 11:35:01;;;;;;;26.42;14.20;;;;;;;;;;4928578;29;20059;-67
2022/05/18 11:37:39;;;;;;;21.55;13.00;;;;;;;;;;4929202;29;20071;-67
2022/05/18 11:40:11;;;;;;;27.98;15.50;;;;;;;;;;4930154;29;20107;-67
2022/05/18 11:42:44;;;;;;;28.38;13.40;;;;;;;;;;4930034;29;20131;-67
2022/05/18 11:45:20;;;;;;;26.65;14.68;;;;;;;;;;4930763;29;20443;-67
2022/05/18 11:47:53;;;;;;;27.73;14.98;;;;;;;;;;4928446;29;20059;-67
2022/05/18 11:50:30;;;;;;;22.58;14.38;;;;;;;;;;4916898;29;20051;-67
2022/05/18 11:53:02;;;;;;;27.67;14.82;;;;;;;;;;4921564;29;20110;-67
2022/05/18 11:55:35;;;;;;;30.50;16.40;;;;;;;;;;4919299;29;20107;-67
2022/05/18 11:58:07;;;;;;;25.70;15.15;;;;;;;;;;4930248;29;20296;-67
2022/05/18 12:00:53;;;;;;;31.60;16.23;;;;;;;;;;4930605;29;20082;-67
2022/05/18 12:03:32;;;;;;;24.58;14.82;;;;;;;;;;4931923;29;20664;-67
2022/05/18 12:06:10;;;;;;;23.67;14.13;;;;;;;;;;4932130;29;20693;-67
2022/05/18 12:08:49;;;;;;;31.65;15.88;;;;;;;;;;4935534;29;20448;-67
2022/05/18 12:11:26;;;;;;;22.48;14.10;;;;;;;;;;4925958;29;20064;-67
2022/05/18 12:14:01;;;;;;;25.15;14.07;;;;;;;;;;4936055;29;20060;-67
2022/05/18 12:16:31;;;;;;;26.17;14.90;;;;;;;;;;4949590;28;20051;-67
2022/05/18 12:19:04;;;;;;;27.33;14.65;;;;;;;;;;4949570;28;20055;-67
2022/05/18 12:21:31;;;;;;;;;;;;;;;;;;4952252;28;20507;-67
2022/05/18 12:24:01;;;;;;;42.08;14.60;;;;;;;;;;4954720;28;19922;-67
2022/05/18 12:26:29;;;;;;;27.48;13.55;;;;;;;;;;4935165;29;20059;-67
2022/05/18 12:28:57;;;;;;;26.30;13.15;;;;;;;;;;4935987;29;20126;-67
2022/05/18 12:31:26;;;;;;;22.88;13.48;;;;;;;;;;4946425;28;20106;-67
2022/05/18 12:34:01;;;;;;;23.58;13.70;;;;;;;;;;4951311;28;20103;-67
2022/05/18 12:36:34;;;;;;;20.23;12.27;;;;;;;;;;4951970;28;20053;-67
2022/05/18 12:39:11;;;;;;;26.73;13.35;;;;;;;;;;4934881;29;20055;-67
2022/05/18 12:41:40;;;;;;;27.80;13.63;;;;;;;;;;4943267;29;20106;-67
2022/05/18 12:44:09;;;;;;;18.15;11.82;;;;;;;;;;4946158;29;20150;-67
2022/05/18 12:46:38;;;;;;;20.27;11.88;;;;;;;;;;4950004;28;20107;-67
2022/05/18 12:49:08;;;;;;;23.60;11.45;;;;;;;;;;4951453;29;20672;-67
2022/05/18 12:51:45;;;;;;;18.30;10.98;;;;;;;;;;4951756;29;20117;-67
2022/05/18 12:54:30;;;;;;;23.48;10.23;;;;;;;;;;4951870;28;20039;-67
2022/05/18 12:57:11;;;;;;;18.42;10.70;;;;;;;;;;4949596;29;20055;-67
2022/05/18 12:59:57;;;;;;;21.98;11.50;;;;;;;;;;4950951;29;20051;-67
2022/05/18 13:02:34;;;;;;;18.92;9.95;;;;;;;;;;4942353;28;20047;-67
2022/05/18 13:05:05;;;;;;;19.27;9.80;;;;;;;;;;4950870;29;20114;-67
2022/05/18 13:07:33;;;;;;;20.50;10.27;;;;;;;;;;4933570;29;20119;-67
2022/05/18 13:10:11;;;;;;;21.88;10.57;;;;;;;;;;4944823;28;20495;-67
2022/05/18 13:12:49;;;;;;;19.52;9.88;;;;;;;;;;4926091;29;20590;-67
2022/05/18 13:15:26;;;;;;;21.38;9.63;;;;;;;;;;4947743;29;20071;-67
2022/05/18 13:17:56;;;;;;;22.42;9.50;;;;;;;;;;4947536;28;20076;-67
2022/05/18 13:20:32;;;;;;;20.38;9.80;;;;;;;;;;4948013;29;20051;-67
2022/05/18 13:23:01;;;;;;;22.15;9.30;;;;;;;;;;4948759;29;20063;-67
2022/05/18 13:25:30;;;;;;;18.52;8.82;;;;;;;;;;4951859;28;20051;-67
2022/05/18 13:27:58;;;;;;;16.45;8.02;;;;;;;;;;4931311;29;20138;-67
2022/05/18 13:30:39;;;;;;;19.13;8.27;;;;;;;;;;4950562;28;20054;-67
2022/05/18 13:33:08;;;;;;;16.67;8.70;;;;;;;;;;4951118;29;20411;-67
2022/05/18 13:35:35;;;;;;;18.65;8.55;;;;;;;;;;4932658;29;20063;-67
2022/05/18 13:38:04;;;;;;;15.70;8.85;;;;;;;;;;4950462;29;20039;-67
2022/05/18 13:40:35;;;;;;;15.77;7.28;;;;;;;;;;4948063;28;20063;-67
2022/05/18 13:43:03;;;;;;;16.83;7.75;;;;;;;;;;4949302;28;20043;-67
2022/05/18 13:45:31;;;;;;;14.43;7.72;;;;;;;;;;4949479;28;20047;-67
2022/05/18 13:47:59;;;;;;;17.92;7.70;;;;;;;;;;4930863;29;20118;-67
2022/05/18 13:50:28;;;;;;;20.30;9.63;;;;;;;;;;4950256;29;20061;-67
2022/05/18 13:52:57;;;;;;;13.93;7.65;;;;;;;;;;4930508;28;20051;-67
2022/05/18 13:55:25;;;;;;;13.38;7.20;;;;;;;;;;4946156;28;20086;-67
2022/05/18 13:57:55;;;;;;;14.95;7.10;;;;;;;;;;4931938;29;20058;-67
2022/05/18 14:00:26;;;;;;;14.90;7.00;;;;;;;;;;4949572;28;20059;-67
2022/05/18 14:02:55;;;;;;;14.20;6.97;;;;;;;;;;4949486;28;20050;-67
2022/05/18 14:05:23;;;;;;;11.43;6.15;;;;;;;;;;4948693;28;20126;-67
2022/05/18 14:07:51;;;;;;;16.05;5.93;;;;;;;;;;4948506;28;20106;-67
2022/05/18 14:10:21;;;;;;;13.13;6.15;;;;;;;;;;4949099;29;20372;-67
2022/05/18 14:12:48;;;;;;;11.50;5.88;;;;;;;;;;4947812;29;20059;-67
2022/05/18 14:15:19;;;;;;;13.35;5.60;;;;;;;;;;4948289;28;20073;-67
2022/05/18 14:17:46;;;;;;;9.43;4.80;;;;;;;;;;4951641;28;20059;-67
2022/05/18 14:20:19;;;;;;;9.43;4.97;;;;;;;;;;4950218;28;20122;-67
2022/05/18 14:22:49;;;;;;;14.48;5.55;;;;;;;;;;4947063;28;20122;-67
2022/05/18 14:25:17;;;;;;;12.85;5.40;;;;;;;;;;4950786;28;20078;-67
2022/05/18 14:27:46;;;;;;;10.63;5.47;;;;;;;;;;4933337;28;20114;-67
2022/05/18 14:30:16;;;;;;;10.88;4.88;;;;;;;;;;4947989;28;20069;-67
2022/05/18 14:32:47;;;;;;;11.20;4.95;;;;;;;;;;4950354;28;20557;-67
2022/05/18 14:35:15;;;;;;;9.40;4.43;;;;;;;;;;4948934;28;20043;-67
2022/05/18 14:37:44;;;;;;;11.45;4.13;;;;;;;;;;4950127;28;20057;-67
2022/05/18 14:40:12;;;;;;;8.48;4.20;;;;;;;;;;4930208;29;20673;-67
2022/05/18 14:42:45;;;;;;;10.27;4.30;;;;;;;;;;4948906;28;20106;-67
2022/05/18 14:45:14;;;;;;;8.60;4.43;;;;;;;;;;4948874;28;20047;-67
2022/05/18 14:47:46;;;;;;;8.77;3.70;;;;;;;;;;4931265;29;20066;-67
2022/05/18 14:50:17;;;;;;;4.80;2.67;;;;;;;;;;4947171;29;20051;-67
2022/05/18 14:52:46;;;;;;;5.28;2.80;;;;;;;;;;4947175;28;20051;-67
2022/05/18 14:55:14;;;;;;;9.63;2.88;;;;;;;;;;4946766;29;20149;-67
2022/05/18 14:57:43;;;;;;;4.85;1.98;;;;;;;;;;4928589;29;20125;-67